Terminal Aerodrome Forecast
Issued by NWS Sterling, VA

Current Version | Previous Version | Text Only | Print | Product List | Glossary Off
Versions: 1 2 3 4 5 6 7 8 9 10 11 12 13 14 15 16 17 18 19 20 21 22 23 24 25

000
FTUS41 KLWX 212326
TAFIAD
TAF
KIAD 212326Z 2200/2306 24006KT P6SM FEW070 OVC110
     FM220200 24004KT P6SM SCT080
     FM221100 31004KT P6SM SCT250
     FM222000 23006KT P6SM BKN200=

USA.gov is the U.S. government's official web portal to all federal, state and local government web resources and services.